PWSweather.com
Personal Weather Stations
Station Observations
GEELONGWX1
Bell Post Hill, GeelongAU

Bell Post HillGeelongAU

Lat: -38.101, Lon: 144.326

Elevation: 204

Station Type: Davis Vantage Pro2

http://www.geelongweather.com

High Low Average
Temperature 72.1°F22.3°C 62.1°F16.7°C 67.6°F19.8°C
Dew Point 55.8°F13.2°C 47.8°F8.8°C 52.1°F11.2°C
Winds 11.5 mph 18.5 kmh Calm Calm 7.0 mph E11.3 kmh E
Wind Gusts 19.6 mph31.5 kmh 2.3 mph3.7 kmh 11.0 mph17.7 kmh
Humidity 76% 45% 59%
Pressure 30.28 in1025.4 mb 30.10 in1019.3 mb -
Precipitation 0.00 in0.0 mm - -
Hour Temp Dew Point Humidity Winds Wind Gusts Pressure Precip Precip Rate Daily Precip Total
12:00 AM 58.8°F14.9°C 44.1°F6.7°C 58% 5.8 mph E9.3 kmh E 10.4 mph16.7 kmh 30.24 in1024.0 mb - 0.00 in0.0 mm 0.00 in0.0 mm
12:10 AM 58.7°F14.8°C 43.5°F6.4°C 57% 3.5 mph E5.6 kmh E 8.1 mph13.0 kmh 30.24 in1024.0 mb - 0.00 in0.0 mm 0.00 in0.0 mm
12:20 AM 58.5°F14.7°C 42.8°F6.0°C 56% 3.5 mph ENE5.6 kmh ENE 4.6 mph7.4 kmh 30.24 in1024.0 mb - 0.00 in0.0 mm 0.00 in0.0 mm
12:30 AM 58.3°F14.6°C 42.7°F5.9°C 56% 2.3 mph ESE3.7 kmh ESE 3.5 mph5.6 kmh 30.23 in1023.7 mb - 0.00 in0.0 mm 0.00 in0.0 mm
12:40 AM 58.0°F14.4°C 42.4°F5.8°C 56% 2.3 mph E3.7 kmh E 8.1 mph13.0 kmh 30.23 in1023.7 mb - 0.00 in0.0 mm 0.00 in0.0 mm
12:50 AM 57.7°F14.3°C 42.1°F5.6°C 56% 3.5 mph E5.6 kmh E 5.8 mph9.3 kmh 30.24 in1024.0 mb - 0.00 in0.0 mm 0.00 in0.0 mm
01:00 AM 57.5°F14.2°C 42.8°F6.0°C 58% 1.2 mph ENE1.9 kmh ENE 3.5 mph5.6 kmh 30.23 in1023.7 mb - 0.00 in0.0 mm 0.00 in0.0 mm
01:10 AM 57.4°F14.1°C 43.6°F6.4°C 60% 2.3 mph NE3.7 kmh NE 4.6 mph7.4 kmh 30.24 in1024.0 mb - 0.00 in0.0 mm 0.00 in0.0 mm
01:20 AM 57.6°F14.2°C 44.2°F6.8°C 61% 5.8 mph NE9.3 kmh NE 9.2 mph14.8 kmh 30.23 in1023.7 mb - 0.00 in0.0 mm 0.00 in0.0 mm
01:30 AM 57.8°F14.3°C 44.4°F6.9°C 61% 2.3 mph ENE3.7 kmh ENE 8.1 mph13.0 kmh 30.23 in1023.7 mb - 0.00 in0.0 mm 0.00 in0.0 mm
01:40 AM 58.0°F14.4°C 43.7°F6.5°C 59% 5.8 mph E9.3 kmh E 10.4 mph16.7 kmh 30.23 in1023.7 mb - 0.00 in0.0 mm 0.00 in0.0 mm
01:50 AM 58.0°F14.4°C 43.3°F6.3°C 58% 3.5 mph ENE5.6 kmh ENE 9.2 mph14.8 kmh 30.23 in1023.7 mb - 0.00 in0.0 mm 0.00 in0.0 mm
02:00 AM 58.0°F14.4°C 42.8°F6.0°C 57% 3.5 mph ENE5.6 kmh ENE 5.8 mph9.3 kmh 30.23 in1023.7 mb - 0.00 in0.0 mm 0.00 in0.0 mm
02:10 AM 57.8°F14.3°C 42.7°F5.9°C 57% 2.3 mph E3.7 kmh E 3.5 mph5.6 kmh 30.23 in1023.7 mb - 0.00 in0.0 mm 0.00 in0.0 mm
02:20 AM 57.5°F14.2°C 41.9°F5.5°C 56% 3.5 mph ENE5.6 kmh ENE 4.6 mph7.4 kmh 30.23 in1023.7 mb - 0.00 in0.0 mm 0.00 in0.0 mm
02:30 AM 57.2°F14.0°C 41.6°F5.3°C 56% 2.3 mph ENE3.7 kmh ENE 3.5 mph5.6 kmh 30.23 in1023.7 mb - 0.00 in0.0 mm 0.00 in0.0 mm
02:40 AM 57.0°F13.9°C 42.4°F5.8°C 58% 2.3 mph ENE3.7 kmh ENE 6.9 mph11.1 kmh 30.23 in1023.7 mb - 0.00 in0.0 mm 0.00 in0.0 mm
02:50 AM 56.9°F13.8°C 43.2°F6.2°C 60% 4.6 mph ENE7.4 kmh ENE 9.2 mph14.8 kmh 30.23 in1023.7 mb - 0.00 in0.0 mm 0.00 in0.0 mm
03:00 AM 57.0°F13.9°C 44.1°F6.7°C 62% 4.6 mph NE7.4 kmh NE 6.9 mph11.1 kmh 30.23 in1023.7 mb - 0.00 in0.0 mm 0.00 in0.0 mm
03:10 AM 57.1°F13.9°C 44.6°F7.0°C 63% 1.2 mph NE1.9 kmh NE 3.5 mph5.6 kmh 30.22 in1023.4 mb - 0.00 in0.0 mm 0.00 in0.0 mm
03:20 AM 57.2°F14.0°C 45.1°F7.3°C 64% 4.6 mph NE7.4 kmh NE 8.1 mph13.0 kmh 30.22 in1023.4 mb - 0.00 in0.0 mm 0.00 in0.0 mm
03:30 AM 57.4°F14.1°C 45.3°F7.4°C 64% 5.8 mph NE9.3 kmh NE 11.5 mph18.5 kmh 30.22 in1023.4 mb - 0.00 in0.0 mm 0.00 in0.0 mm
03:40 AM 57.6°F14.2°C 45.5°F7.5°C 64% 4.6 mph ENE7.4 kmh ENE 8.1 mph13.0 kmh 30.23 in1023.7 mb - 0.00 in0.0 mm 0.00 in0.0 mm
03:50 AM 57.7°F14.3°C 45.2°F7.3°C 63% 2.3 mph ENE3.7 kmh ENE 5.8 mph9.3 kmh 30.23 in1023.7 mb - 0.00 in0.0 mm 0.00 in0.0 mm
04:00 AM 57.8°F14.3°C 44.4°F6.9°C 61% 5.8 mph ENE9.3 kmh ENE 8.1 mph13.0 kmh 30.23 in1023.7 mb - 0.00 in0.0 mm 0.00 in0.0 mm
04:10 AM 57.8°F14.3°C 44.0°F6.7°C 60% 5.8 mph ENE9.3 kmh ENE 11.5 mph18.5 kmh 30.23 in1023.7 mb - 0.00 in0.0 mm 0.00 in0.0 mm
04:20 AM 57.7°F14.3°C 43.9°F6.6°C 60% 5.8 mph E9.3 kmh E 9.2 mph14.8 kmh 30.23 in1023.7 mb - 0.00 in0.0 mm 0.00 in0.0 mm
04:30 AM 57.6°F14.2°C 43.8°F6.6°C 60% 1.2 mph ENE1.9 kmh ENE 3.5 mph5.6 kmh 30.23 in1023.7 mb - 0.00 in0.0 mm 0.00 in0.0 mm
04:40 AM 57.3°F14.1°C 43.6°F6.4°C 60% 4.6 mph ENE7.4 kmh ENE 6.9 mph11.1 kmh 30.23 in1023.7 mb - 0.00 in0.0 mm 0.00 in0.0 mm
04:50 AM 57.1°F13.9°C 43.3°F6.3°C 60% 2.3 mph ENE3.7 kmh ENE 3.5 mph5.6 kmh 30.23 in1023.7 mb - 0.00 in0.0 mm 0.00 in0.0 mm
05:00 AM 56.9°F13.8°C 42.7°F5.9°C 59% 2.3 mph E3.7 kmh E 4.6 mph7.4 kmh 30.23 in1023.7 mb - 0.00 in0.0 mm 0.00 in0.0 mm
05:10 AM 56.9°F13.8°C 43.2°F6.2°C 60% 2.3 mph NE3.7 kmh NE 4.6 mph7.4 kmh 30.23 in1023.7 mb - 0.00 in0.0 mm 0.00 in0.0 mm
05:20 AM 57.0°F13.9°C 43.7°F6.5°C 61% 6.9 mph NE11.1 kmh NE 9.2 mph14.8 kmh 30.23 in1023.7 mb - 0.00 in0.0 mm 0.00 in0.0 mm
05:30 AM 57.1°F13.9°C 44.2°F6.8°C 62% 4.6 mph NE7.4 kmh NE 6.9 mph11.1 kmh 30.23 in1023.7 mb - 0.00 in0.0 mm 0.00 in0.0 mm
05:40 AM 57.2°F14.0°C 44.3°F6.8°C 62% 3.5 mph NE5.6 kmh NE 9.2 mph14.8 kmh 30.23 in1023.7 mb - 0.00 in0.0 mm 0.00 in0.0 mm
05:50 AM 57.3°F14.1°C 44.4°F6.9°C 62% 4.6 mph NE7.4 kmh NE 9.2 mph14.8 kmh 30.23 in1023.7 mb - 0.00 in0.0 mm 0.00 in0.0 mm
06:00 AM 57.4°F14.1°C 44.5°F6.9°C 62% 2.3 mph NE3.7 kmh NE 10.4 mph16.7 kmh 30.24 in1024.0 mb - 0.00 in0.0 mm 0.00 in0.0 mm
06:10 AM 57.9°F14.4°C 45.0°F7.2°C 62% 5.8 mph NE9.3 kmh NE 11.5 mph18.5 kmh 30.24 in1024.0 mb - 0.00 in0.0 mm 0.00 in0.0 mm
06:20 AM 58.7°F14.8°C 45.7°F7.6°C 62% 6.9 mph NE11.1 kmh NE 11.5 mph18.5 kmh 30.25 in1024.4 mb - 0.00 in0.0 mm 0.00 in0.0 mm
06:30 AM 59.6°F15.3°C 45.2°F7.3°C 59% 6.9 mph NE11.1 kmh NE 11.5 mph18.5 kmh 30.25 in1024.4 mb - 0.00 in0.0 mm 0.00 in0.0 mm
06:40 AM 60.2°F15.7°C 45.8°F7.7°C 59% 5.8 mph NE9.3 kmh NE 10.4 mph16.7 kmh 30.25 in1024.4 mb - 0.00 in0.0 mm 0.00 in0.0 mm
06:50 AM 60.6°F15.9°C 45.7°F7.6°C 58% 8.1 mph NE13.0 kmh NE 11.5 mph18.5 kmh 30.25 in1024.4 mb - 0.00 in0.0 mm 0.00 in0.0 mm
07:00 AM 60.8°F16.0°C 45.9°F7.7°C 58% 4.6 mph NE7.4 kmh NE 9.2 mph14.8 kmh 30.26 in1024.7 mb - 0.00 in0.0 mm 0.00 in0.0 mm
07:10 AM 61.1°F16.2°C 45.8°F7.7°C 57% 8.1 mph NE13.0 kmh NE 11.5 mph18.5 kmh 30.26 in1024.7 mb - 0.00 in0.0 mm 0.00 in0.0 mm
07:20 AM 62.1°F16.7°C 45.8°F7.7°C 55% 9.2 mph NE14.8 kmh NE 13.8 mph22.2 kmh 30.26 in1024.7 mb - 0.00 in0.0 mm 0.00 in0.0 mm
07:30 AM 62.9°F17.2°C 46.0°F7.8°C 54% 4.6 mph NE7.4 kmh NE 6.9 mph11.1 kmh 30.27 in1025.1 mb - 0.00 in0.0 mm 0.00 in0.0 mm
07:40 AM 63.5°F17.5°C 46.1°F7.8°C 53% 10.4 mph NE16.7 kmh NE 13.8 mph22.2 kmh 30.27 in1025.1 mb - 0.00 in0.0 mm 0.00 in0.0 mm
07:50 AM 63.7°F17.6°C 45.7°F7.6°C 52% 8.1 mph NE13.0 kmh NE 13.8 mph22.2 kmh 30.27 in1025.1 mb - 0.00 in0.0 mm 0.00 in0.0 mm
08:00 AM 63.2°F17.3°C 46.3°F7.9°C 54% 9.2 mph ENE14.8 kmh ENE 13.8 mph22.2 kmh 30.27 in1025.1 mb - 0.00 in0.0 mm 0.00 in0.0 mm
08:10 AM 64.0°F17.8°C 47.0°F8.3°C 54% 8.1 mph NNE13.0 kmh NNE 11.5 mph18.5 kmh 30.28 in1025.4 mb - 0.00 in0.0 mm 0.00 in0.0 mm
08:20 AM 65.5°F18.6°C 46.4°F8.0°C 50% 9.2 mph NE14.8 kmh NE 13.8 mph22.2 kmh 30.28 in1025.4 mb - 0.00 in0.0 mm 0.00 in0.0 mm
08:30 AM 66.3°F19.1°C 46.6°F8.1°C 49% 9.2 mph NE14.8 kmh NE 11.5 mph18.5 kmh 30.28 in1025.4 mb - 0.00 in0.0 mm 0.00 in0.0 mm
08:40 AM 66.8°F19.3°C 45.9°F7.7°C 47% 8.1 mph NNE13.0 kmh NNE 12.7 mph20.4 kmh 30.28 in1025.4 mb - 0.00 in0.0 mm 0.00 in0.0 mm
08:50 AM 66.5°F19.2°C 46.7°F8.2°C 49% 5.8 mph NE9.3 kmh NE 11.5 mph18.5 kmh 30.28 in1025.4 mb - 0.00 in0.0 mm 0.00 in0.0 mm
09:00 AM 67.4°F19.7°C 47.5°F8.6°C 49% 12.7 mph NE20.4 kmh NE 15.0 mph24.1 kmh 30.29 in1025.7 mb - 0.00 in0.0 mm 0.00 in0.0 mm
09:10 AM 67.9°F19.9°C 46.9°F8.3°C 47% 5.8 mph NE9.3 kmh NE 11.5 mph18.5 kmh 30.29 in1025.7 mb - 0.00 in0.0 mm 0.00 in0.0 mm
09:20 AM 66.9°F19.4°C 47.1°F8.4°C 49% 8.1 mph NE13.0 kmh NE 13.8 mph22.2 kmh 30.29 in1025.7 mb - 0.00 in0.0 mm 0.00 in0.0 mm
09:30 AM 66.1°F18.9°C 46.9°F8.3°C 50% 5.8 mph ENE9.3 kmh ENE 11.5 mph18.5 kmh 30.29 in1025.7 mb - 0.00 in0.0 mm 0.00 in0.0 mm
09:40 AM 66.0°F18.9°C 46.3°F7.9°C 49% 10.4 mph ENE16.7 kmh ENE 12.7 mph20.4 kmh 30.29 in1025.7 mb - 0.00 in0.0 mm 0.00 in0.0 mm
09:50 AM 66.8°F19.3°C 47.6°F8.7°C 50% 6.9 mph NE11.1 kmh NE 12.7 mph20.4 kmh 30.28 in1025.4 mb - 0.00 in0.0 mm 0.00 in0.0 mm
10:00 AM 67.8°F19.9°C 47.9°F8.8°C 49% 8.1 mph NE13.0 kmh NE 13.8 mph22.2 kmh 30.28 in1025.4 mb - 0.00 in0.0 mm 0.00 in0.0 mm
10:10 AM 68.8°F20.4°C 48.9°F9.4°C 49% 10.4 mph NNE16.7 kmh NNE 13.8 mph22.2 kmh 30.27 in1025.1 mb - 0.00 in0.0 mm 0.00 in0.0 mm
10:20 AM 69.5°F20.8°C 47.8°F8.8°C 46% 11.5 mph ENE18.5 kmh ENE 13.8 mph22.2 kmh 30.28 in1025.4 mb - 0.00 in0.0 mm 0.00 in0.0 mm
10:30 AM 69.2°F20.7°C 48.1°F8.9°C 47% 6.9 mph E11.1 kmh E 15.0 mph24.1 kmh 30.27 in1025.1 mb - 0.00 in0.0 mm 0.00 in0.0 mm
10:40 AM 69.5°F20.8°C 49.0°F9.4°C 48% 6.9 mph E11.1 kmh E 11.5 mph18.5 kmh 30.27 in1025.1 mb - 0.00 in0.0 mm 0.00 in0.0 mm
10:50 AM 69.8°F21.0°C 48.1°F8.9°C 46% 6.9 mph NE11.1 kmh NE 10.4 mph16.7 kmh 30.27 in1025.1 mb - 0.00 in0.0 mm 0.00 in0.0 mm
11:00 AM 70.3°F21.3°C 49.1°F9.5°C 47% 9.2 mph ENE14.8 kmh ENE 15.0 mph24.1 kmh 30.27 in1025.1 mb - 0.00 in0.0 mm 0.00 in0.0 mm
11:10 AM 70.7°F21.5°C 48.9°F9.4°C 46% 9.2 mph NE14.8 kmh NE 17.3 mph27.8 kmh 30.26 in1024.7 mb - 0.00 in0.0 mm 0.00 in0.0 mm
11:20 AM 71.2°F21.8°C 49.3°F9.6°C 46% 9.2 mph NE14.8 kmh NE 11.5 mph18.5 kmh 30.26 in1024.7 mb - 0.00 in0.0 mm 0.00 in0.0 mm
11:30 AM 71.9°F22.2°C 49.4°F9.7°C 45% 9.2 mph ENE14.8 kmh ENE 13.8 mph22.2 kmh 30.25 in1024.4 mb - 0.00 in0.0 mm 0.00 in0.0 mm
11:40 AM 71.4°F21.9°C 49.5°F9.7°C 46% 5.8 mph NE9.3 kmh NE 9.2 mph14.8 kmh 30.25 in1024.4 mb - 0.00 in0.0 mm 0.00 in0.0 mm
11:50 AM 71.2°F21.8°C 49.9°F9.9°C 47% 6.9 mph NE11.1 kmh NE 10.4 mph16.7 kmh 30.25 in1024.4 mb - 0.00 in0.0 mm 0.00 in0.0 mm
12:00 PM 71.3°F21.8°C 50.0°F10.0°C 47% 10.4 mph ENE16.7 kmh ENE 13.8 mph22.2 kmh 30.25 in1024.4 mb - 0.00 in0.0 mm 0.00 in0.0 mm
12:10 PM 71.4°F21.9°C 50.1°F10.1°C 47% 8.1 mph E13.0 kmh E 9.2 mph14.8 kmh 30.24 in1024.0 mb - 0.00 in0.0 mm 0.00 in0.0 mm
12:20 PM 71.8°F22.1°C 49.9°F9.9°C 46% 8.1 mph NE13.0 kmh NE 13.8 mph22.2 kmh 30.24 in1024.0 mb - 0.00 in0.0 mm 0.00 in0.0 mm
12:30 PM 71.6°F22.0°C 49.7°F9.8°C 46% 8.1 mph NE13.0 kmh NE 10.4 mph16.7 kmh 30.23 in1023.7 mb - 0.00 in0.0 mm 0.00 in0.0 mm
12:40 PM 71.5°F21.9°C 49.6°F9.8°C 46% 4.6 mph E7.4 kmh E 11.5 mph18.5 kmh 30.23 in1023.7 mb - 0.00 in0.0 mm 0.00 in0.0 mm
12:50 PM 71.8°F22.1°C 49.9°F9.9°C 46% 9.2 mph E14.8 kmh E 18.4 mph29.6 kmh 30.22 in1023.4 mb - 0.00 in0.0 mm 0.00 in0.0 mm
01:00 PM 72.1°F22.3°C 50.1°F10.1°C 46% 6.9 mph ENE11.1 kmh ENE 12.7 mph20.4 kmh 30.22 in1023.4 mb - 0.00 in0.0 mm 0.00 in0.0 mm
01:10 PM 71.7°F22.1°C 49.2°F9.6°C 45% 9.2 mph NE14.8 kmh NE 18.4 mph29.6 kmh 30.22 in1023.4 mb - 0.00 in0.0 mm 0.00 in0.0 mm
01:20 PM 71.7°F22.1°C 49.8°F9.9°C 46% 3.5 mph ENE5.6 kmh ENE 12.7 mph20.4 kmh 30.21 in1023.0 mb - 0.00 in0.0 mm 0.00 in0.0 mm
01:30 PM 71.7°F22.1°C 49.8°F9.9°C 46% 6.9 mph NE11.1 kmh NE 10.4 mph16.7 kmh 30.21 in1023.0 mb - 0.00 in0.0 mm 0.00 in0.0 mm
01:40 PM 71.9°F22.2°C 50.5°F10.3°C 47% 6.9 mph ENE11.1 kmh ENE 16.1 mph25.9 kmh 30.21 in1023.0 mb - 0.00 in0.0 mm 0.00 in0.0 mm
01:50 PM 71.6°F22.0°C 49.8°F9.9°C 46% 11.5 mph NE18.5 kmh NE 15.0 mph24.1 kmh 30.21 in1023.0 mb - 0.00 in0.0 mm 0.00 in0.0 mm
02:00 PM 71.1°F21.7°C 49.8°F9.9°C 47% 9.2 mph NE14.8 kmh NE 12.7 mph20.4 kmh 30.21 in1023.0 mb - 0.00 in0.0 mm 0.00 in0.0 mm
02:10 PM 71.2°F21.8°C 50.0°F10.0°C 47% 11.5 mph NE18.5 kmh NE 11.5 mph18.5 kmh 30.21 in1023.0 mb - 0.00 in0.0 mm 0.00 in0.0 mm
02:20 PM 71.5°F21.9°C 50.7°F10.4°C 48% 8.1 mph ENE13.0 kmh ENE 11.5 mph18.5 kmh 30.20 in1022.7 mb - 0.00 in0.0 mm 0.00 in0.0 mm
02:30 PM 71.9°F22.2°C 50.6°F10.3°C 47% 10.4 mph ENE16.7 kmh ENE 15.0 mph24.1 kmh 30.20 in1022.7 mb - 0.00 in0.0 mm 0.00 in0.0 mm
02:40 PM 71.9°F22.2°C 50.6°F10.3°C 47% 9.2 mph ENE14.8 kmh ENE 15.0 mph24.1 kmh 30.19 in1022.4 mb - 0.00 in0.0 mm 0.00 in0.0 mm
02:50 PM 71.5°F21.9°C 50.8°F10.4°C 48% 5.8 mph E9.3 kmh E 12.7 mph20.4 kmh 30.19 in1022.4 mb - 0.00 in0.0 mm 0.00 in0.0 mm
03:00 PM 71.7°F22.1°C 50.4°F10.2°C 47% 6.9 mph E11.1 kmh E 10.4 mph16.7 kmh 30.19 in1022.4 mb - 0.00 in0.0 mm 0.00 in0.0 mm
03:10 PM 71.8°F22.1°C 51.0°F10.6°C 48% 10.4 mph ENE16.7 kmh ENE 19.6 mph31.5 kmh 30.19 in1022.4 mb - 0.00 in0.0 mm 0.00 in0.0 mm
03:20 PM 71.7°F22.1°C 51.0°F10.6°C 48% 10.4 mph E16.7 kmh E 19.6 mph31.5 kmh 30.18 in1022.0 mb - 0.00 in0.0 mm 0.00 in0.0 mm
03:30 PM 71.5°F21.9°C 51.3°F10.7°C 49% 9.2 mph E14.8 kmh E 12.7 mph20.4 kmh 30.18 in1022.0 mb - 0.00 in0.0 mm 0.00 in0.0 mm
03:40 PM 71.3°F21.8°C 50.6°F10.3°C 48% 10.4 mph NE16.7 kmh NE 19.6 mph31.5 kmh 30.18 in1022.0 mb - 0.00 in0.0 mm 0.00 in0.0 mm
03:50 PM 70.4°F21.3°C 50.9°F10.5°C 50% 8.1 mph ESE13.0 kmh ESE 13.8 mph22.2 kmh 30.17 in1021.7 mb - 0.00 in0.0 mm 0.00 in0.0 mm
04:00 PM 69.7°F20.9°C 50.8°F10.4°C 51% 6.9 mph E11.1 kmh E 6.9 mph11.1 kmh 30.17 in1021.7 mb - 0.00 in0.0 mm 0.00 in0.0 mm
04:10 PM 69.4°F20.8°C 51.0°F10.6°C 52% 11.5 mph ENE18.5 kmh ENE 15.0 mph24.1 kmh 30.18 in1022.0 mb - 0.00 in0.0 mm 0.00 in0.0 mm
04:20 PM 69.0°F20.6°C 51.2°F10.7°C 53% 6.9 mph ENE11.1 kmh ENE 11.5 mph18.5 kmh 30.17 in1021.7 mb - 0.00 in0.0 mm 0.00 in0.0 mm
04:30 PM 68.9°F20.5°C 51.6°F10.9°C 54% 8.1 mph E13.0 kmh E 11.5 mph18.5 kmh 30.17 in1021.7 mb - 0.00 in0.0 mm 0.00 in0.0 mm
04:40 PM 68.6°F20.3°C 51.3°F10.7°C 54% 8.1 mph ENE13.0 kmh ENE 11.5 mph18.5 kmh 30.17 in1021.7 mb - 0.00 in0.0 mm 0.00 in0.0 mm
04:50 PM 68.1°F20.1°C 51.3°F10.7°C 55% 8.1 mph ENE13.0 kmh ENE 16.1 mph25.9 kmh 30.17 in1021.7 mb - 0.00 in0.0 mm 0.00 in0.0 mm
05:00 PM 67.8°F19.9°C 51.5°F10.8°C 56% 5.8 mph E9.3 kmh E 15.0 mph24.1 kmh 30.16 in1021.3 mb - 0.00 in0.0 mm 0.00 in0.0 mm
05:10 PM 67.4°F19.7°C 51.7°F10.9°C 57% 9.2 mph E14.8 kmh E 11.5 mph18.5 kmh 30.16 in1021.3 mb - 0.00 in0.0 mm 0.00 in0.0 mm
05:20 PM 67.0°F19.4°C 52.2°F11.2°C 59% 11.5 mph E18.5 kmh E 13.8 mph22.2 kmh 30.16 in1021.3 mb - 0.00 in0.0 mm 0.00 in0.0 mm
05:30 PM 66.8°F19.3°C 52.5°F11.4°C 60% 8.1 mph E13.0 kmh E 15.0 mph24.1 kmh 30.15 in1021.0 mb - 0.00 in0.0 mm 0.00 in0.0 mm
05:40 PM 66.7°F19.3°C 52.3°F11.3°C 60% 8.1 mph E13.0 kmh E 11.5 mph18.5 kmh 30.16 in1021.3 mb - 0.00 in0.0 mm 0.00 in0.0 mm
05:50 PM 66.6°F19.2°C 52.7°F11.5°C 61% 6.9 mph E11.1 kmh E 9.2 mph14.8 kmh 30.15 in1021.0 mb - 0.00 in0.0 mm 0.00 in0.0 mm
06:00 PM 66.5°F19.2°C 52.6°F11.4°C 61% 8.1 mph E13.0 kmh E 11.5 mph18.5 kmh 30.15 in1021.0 mb - 0.00 in0.0 mm 0.00 in0.0 mm
06:10 PM 66.2°F19.0°C 52.8°F11.6°C 62% 5.8 mph E9.3 kmh E 11.5 mph18.5 kmh 30.15 in1021.0 mb - 0.00 in0.0 mm 0.00 in0.0 mm
06:20 PM 65.9°F18.8°C 53.0°F11.7°C 63% 6.9 mph E11.1 kmh E 9.2 mph14.8 kmh 30.15 in1021.0 mb - 0.00 in0.0 mm 0.00 in0.0 mm
06:30 PM 65.6°F18.7°C 53.1°F11.7°C 64% 3.5 mph E5.6 kmh E 8.1 mph13.0 kmh 30.15 in1021.0 mb - 0.00 in0.0 mm 0.00 in0.0 mm
06:40 PM 65.3°F18.5°C 53.2°F11.8°C 65% 8.1 mph E13.0 kmh E 11.5 mph18.5 kmh 30.15 in1021.0 mb - 0.00 in0.0 mm 0.00 in0.0 mm
06:50 PM 65.0°F18.3°C 53.4°F11.9°C 66% 5.8 mph E9.3 kmh E 19.6 mph31.5 kmh 30.16 in1021.3 mb - 0.00 in0.0 mm 0.00 in0.0 mm
07:00 PM 64.7°F18.2°C 53.5°F11.9°C 67% 8.1 mph E13.0 kmh E 10.4 mph16.7 kmh 30.16 in1021.3 mb - 0.00 in0.0 mm 0.00 in0.0 mm
07:10 PM 64.4°F18.0°C 53.6°F12.0°C 68% 8.1 mph E13.0 kmh E 12.7 mph20.4 kmh 30.16 in1021.3 mb - 0.00 in0.0 mm 0.00 in0.0 mm
07:20 PM 64.2°F17.9°C 53.8°F12.1°C 69% 3.5 mph E5.6 kmh E 6.9 mph11.1 kmh 30.15 in1021.0 mb - 0.00 in0.0 mm 0.00 in0.0 mm
07:30 PM 64.1°F17.8°C 53.7°F12.1°C 69% 4.6 mph E7.4 kmh E 6.9 mph11.1 kmh 30.15 in1021.0 mb - 0.00 in0.0 mm 0.00 in0.0 mm
07:40 PM 63.9°F17.7°C 53.9°F12.2°C 70% 9.2 mph E14.8 kmh E 11.5 mph18.5 kmh 30.15 in1021.0 mb - 0.00 in0.0 mm 0.00 in0.0 mm
07:50 PM 63.7°F17.6°C 54.2°F12.3°C 71% 3.5 mph E5.6 kmh E 6.9 mph11.1 kmh 30.15 in1021.0 mb - 0.00 in0.0 mm 0.00 in0.0 mm
08:00 PM 63.6°F17.6°C 54.0°F12.2°C 71% Calm Calm 6.9 mph11.1 kmh 30.15 in1021.0 mb - 0.00 in0.0 mm 0.00 in0.0 mm
08:10 PM 63.6°F17.6°C 54.4°F12.4°C 72% 3.5 mph E5.6 kmh E 5.8 mph9.3 kmh 30.15 in1021.0 mb - 0.00 in0.0 mm 0.00 in0.0 mm
08:20 PM 63.5°F17.5°C 54.3°F12.4°C 72% 3.5 mph E5.6 kmh E 10.4 mph16.7 kmh 30.15 in1021.0 mb - 0.00 in0.0 mm 0.00 in0.0 mm
08:30 PM 63.5°F17.5°C 54.7°F12.6°C 73% 3.5 mph E5.6 kmh E 6.9 mph11.1 kmh 30.15 in1021.0 mb - 0.00 in0.0 mm 0.00 in0.0 mm
08:40 PM 63.5°F17.5°C 54.7°F12.6°C 73% 4.6 mph E7.4 kmh E 9.2 mph14.8 kmh 30.14 in1020.7 mb - 0.00 in0.0 mm 0.00 in0.0 mm
08:50 PM 63.5°F17.5°C 54.7°F12.6°C 73% 5.8 mph E9.3 kmh E 9.2 mph14.8 kmh 30.15 in1021.0 mb - 0.00 in0.0 mm 0.00 in0.0 mm
09:00 PM 63.4°F17.4°C 54.6°F12.6°C 73% 4.6 mph E7.4 kmh E 9.2 mph14.8 kmh 30.15 in1021.0 mb - 0.00 in0.0 mm 0.00 in0.0 mm
09:10 PM 63.4°F17.4°C 55.0°F12.8°C 74% 3.5 mph ENE5.6 kmh ENE 5.8 mph9.3 kmh 30.14 in1020.7 mb - 0.00 in0.0 mm 0.00 in0.0 mm
09:20 PM 63.6°F17.6°C 55.2°F12.9°C 74% 5.8 mph E9.3 kmh E 8.1 mph13.0 kmh 30.14 in1020.7 mb - 0.00 in0.0 mm 0.00 in0.0 mm
09:30 PM 63.7°F17.6°C 55.7°F13.2°C 75% 5.8 mph ENE9.3 kmh ENE 6.9 mph11.1 kmh 30.15 in1021.0 mb - 0.00 in0.0 mm 0.00 in0.0 mm
09:40 PM 63.8°F17.7°C 55.7°F13.2°C 75% 4.6 mph E7.4 kmh E 6.9 mph11.1 kmh 30.14 in1020.7 mb - 0.00 in0.0 mm 0.00 in0.0 mm
09:50 PM 63.9°F17.7°C 55.8°F13.2°C 75% 2.3 mph E3.7 kmh E 3.5 mph5.6 kmh 30.14 in1020.7 mb - 0.00 in0.0 mm 0.00 in0.0 mm
10:00 PM 63.8°F17.7°C 55.8°F13.2°C 75% 2.3 mph E3.7 kmh E 4.6 mph7.4 kmh 30.14 in1020.7 mb - 0.00 in0.0 mm 0.00 in0.0 mm
10:10 PM 63.8°F17.7°C 55.7°F13.2°C 75% 2.3 mph ENE3.7 kmh ENE 8.1 mph13.0 kmh 30.13 in1020.3 mb - 0.00 in0.0 mm 0.00 in0.0 mm
10:20 PM 63.6°F17.6°C 55.5°F13.1°C 75% 1.2 mph E1.9 kmh E 3.5 mph5.6 kmh 30.13 in1020.3 mb - 0.00 in0.0 mm 0.00 in0.0 mm
10:30 PM 63.5°F17.5°C 55.4°F13.0°C 75% 2.3 mph ENE3.7 kmh ENE 4.6 mph7.4 kmh 30.12 in1020.0 mb - 0.00 in0.0 mm 0.00 in0.0 mm
10:40 PM 63.4°F17.4°C 55.3°F12.9°C 75% 2.3 mph E3.7 kmh E 4.6 mph7.4 kmh 30.12 in1020.0 mb - 0.00 in0.0 mm 0.00 in0.0 mm
10:50 PM 63.3°F17.4°C 55.2°F12.9°C 75% 2.3 mph E3.7 kmh E 3.5 mph5.6 kmh 30.12 in1020.0 mb - 0.00 in0.0 mm 0.00 in0.0 mm
11:00 PM 63.1°F17.3°C 55.0°F12.8°C 75% 2.3 mph E3.7 kmh E 3.5 mph5.6 kmh 30.12 in1020.0 mb - 0.00 in0.0 mm 0.00 in0.0 mm
11:10 PM 62.9°F17.2°C 54.9°F12.7°C 75% 2.3 mph E3.7 kmh E 3.5 mph5.6 kmh 30.12 in1020.0 mb - 0.00 in0.0 mm 0.00 in0.0 mm
11:20 PM 62.7°F17.1°C 54.7°F12.6°C 75% 1.2 mph E1.9 kmh E 2.3 mph3.7 kmh 30.11 in1019.6 mb - 0.00 in0.0 mm 0.00 in0.0 mm
11:30 PM 62.5°F16.9°C 54.8°F12.7°C 76% 2.3 mph E3.7 kmh E 3.5 mph5.6 kmh 30.11 in1019.6 mb - 0.00 in0.0 mm 0.00 in0.0 mm
11:40 PM 62.3°F16.8°C 54.6°F12.6°C 76% 1.2 mph E1.9 kmh E 3.5 mph5.6 kmh 30.11 in1019.6 mb - 0.00 in0.0 mm 0.00 in0.0 mm
11:50 PM 62.1°F16.7°C 54.4°F12.4°C 76% 1.2 mph E1.9 kmh E 2.3 mph3.7 kmh 30.10 in1019.3 mb - 0.00 in0.0 mm 0.00 in0.0 mm